Corunna, MI

12:25 AM EDT die 24o September, anno 2014 (GMT -0400)
Fayette Square | Change Station
CLOSE
Current Station
Personal Weather Stations
Location: Owosso, MI
Elevation: 764 ft
Nearby Weather Stations

Elev 764 ft 43.00 °N, 84.17 °W | Updated 5 seconds ago

Serena
Serena
59.4 °F
Feels Like 59.4 °F
N
1.0
Ventus Variabilis Ventus from Inter Austrum et Zephyrum
Gusts 2.3 mph

Hodie
High -- | Low -- °F
--% Chance of Precip.
Yesterday
High -- | Low -- °F
Precip. -- in
7:25 AM 7:29 PM
Waning Crescent, 0% visible
Pressio 30.36 in
Visibilitas 10.0 milia passuum
Clouds Serena
Frigus in quo Ros apparet 53 °F
Umor 79%
Rainfall 0.00 in
Snow Depth Not available.
UV 0 out of 12
Pollen 3.00 out of 12
Ozone Good
PM2.5 Good
Flu Activity Not available.
METAR KRNP 240414Z AUTO 00000KT 10SM CLR 12/12 A3036 RMK AO2 T01210120

More Conditions Fewer Conditions

Pressio 30.36 in
Visibilitas 10.0 milia passuum
Clouds Serena
Frigus in quo Ros apparet 53 °F
Umor 79%
Rainfall 0.00 in
Snow Depth Not available.
UV 0 out of 12
Pollen 3.00 out of 12
Ozone Good
PM2.5 Good
Flu Activity Not available.
METAR KRNP 240414Z AUTO 00000KT 10SM CLR 12/12 A3036 RMK AO2 T01210120

More Conditions Fewer Conditions

10-Day Weather Forecast

Almanac

Astronomy

Sep. 24, 2014 Rise Set
Actual Time 7:25 AM EDT 7:29 PM EDT
Civil Twilight 6:57 AM EDT 7:58 PM EDT
Nautical Twilight 6:24 AM EDT 8:31 PM EDT
Astronomical Twilight 5:50 AM EDT 9:05 PM EDT
Moon 7:46 AM EDT 7:38 PM EDT
Length Of Visible Light 13h 00m
Length of Day
12h 04m
Tomorrow will be 2m 54s shorter.
Waning Crescent, 0% of the Moon is Illuminated
Hodie
Waning Crescent
Sep 24
New
Oct 1
First Quarter
Oct 8
Full
Oct 15
Last Quarter

Yesterday's Extremes

State Highs State Lows

Community

WunderPhotos

Upload Photos

1,755,890 photos uploaded!

WunderBlogs® & News

Nearby

Air Quality

  Air Quality AQ Index Pollutant
Yesterday Good
PM2.5
Yesterday Good
OZONE
Current Good
PM2.5
Current Good
OZONE
Die Martis Good
OZONE
Die Martis Good
PM2.5
Die Mercurii Good
OZONE
Die Mercurii Good
PM2.5
Die Jovis Good
OZONE
Die Jovis Good
PM2.5
Die Veneris Good
OZONE
Die Veneris Good
PM2.5
Die Saturni Good
OZONE
Die Saturni Good
PM2.5

Snow Depth

Station Depth Elevation
No new snow has been reported.

Earthquake Activity

City Distance Mag. Time & Date
No recent earthquake activity has been reported nearby.
Minimum magnitude displayed is 2.5.

Coastal Water Temperatures

Locus Calor
No Stations Reporting

Nearby Weather Stations